sensor_id;sensor_type;location;lat;lon;timestamp;P1;durP1;ratioP1;P2;durP2;ratioP2
944;SDS011;459;48.676;9.034;2023-06-22T00:01:17;9.77;;;8.87;;
944;SDS011;459;48.676;9.034;2023-06-22T00:03:42;11.30;;;9.97;;
944;SDS011;459;48.676;9.034;2023-06-22T00:06:07;13.27;;;9.47;;
944;SDS011;459;48.676;9.034;2023-06-22T00:08:32;12.53;;;9.20;;
944;SDS011;459;48.676;9.034;2023-06-22T00:10:57;11.07;;;8.67;;
944;SDS011;459;48.676;9.034;2023-06-22T00:13:23;9.90;;;9.03;;
944;SDS011;459;48.676;9.034;2023-06-22T00:15:48;9.77;;;8.93;;
944;SDS011;459;48.676;9.034;2023-06-22T00:18:13;11.90;;;9.73;;
944;SDS011;459;48.676;9.034;2023-06-22T00:20:38;9.50;;;8.50;;
944;SDS011;459;48.676;9.034;2023-06-22T00:23:05;10.70;;;9.73;;
944;SDS011;459;48.676;9.034;2023-06-22T00:25:34;10.40;;;8.27;;
944;SDS011;459;48.676;9.034;2023-06-22T00:27:59;10.63;;;9.63;;
944;SDS011;459;48.676;9.034;2023-06-22T00:30:24;11.90;;;9.73;;
944;SDS011;459;48.676;9.034;2023-06-22T00:32:49;9.53;;;8.60;;
944;SDS011;459;48.676;9.034;2023-06-22T00:35:14;9.50;;;8.63;;
944;SDS011;459;48.676;9.034;2023-06-22T00:37:40;10.00;;;9.03;;
944;SDS011;459;48.676;9.034;2023-06-22T00:40:08;9.60;;;8.60;;
944;SDS011;459;48.676;9.034;2023-06-22T00:42:36;9.43;;;8.47;;
944;SDS011;459;48.676;9.034;2023-06-22T00:45:01;10.53;;;9.57;;
944;SDS011;459;48.676;9.034;2023-06-22T00:47:34;9.50;;;8.43;;
944;SDS011;459;48.676;9.034;2023-06-22T00:49:59;13.47;;;9.93;;
944;SDS011;459;48.676;9.034;2023-06-22T00:52:25;9.90;;;9.00;;
944;SDS011;459;48.676;9.034;2023-06-22T00:54:56;10.37;;;9.37;;
944;SDS011;459;48.676;9.034;2023-06-22T00:57:21;8.70;;;8.00;;
944;SDS011;459;48.676;9.034;2023-06-22T00:59:47;10.17;;;8.80;;
944;SDS011;459;48.676;9.034;2023-06-22T01:02:13;10.80;;;9.73;;
944;SDS011;459;48.676;9.034;2023-06-22T01:04:38;11.00;;;9.90;;
944;SDS011;459;48.676;9.034;2023-06-22T01:09:32;10.83;;;9.83;;
944;SDS011;459;48.676;9.034;2023-06-22T01:12:00;12.90;;;8.93;;
944;SDS011;459;48.676;9.034;2023-06-22T01:14:28;14.03;;;10.37;;
944;SDS011;459;48.676;9.034;2023-06-22T01:16:55;11.00;;;9.80;;
944;SDS011;459;48.676;9.034;2023-06-22T01:21:53;12.77;;;10.97;;
944;SDS011;459;48.676;9.034;2023-06-22T01:24:27;10.40;;;9.50;;
944;SDS011;459;48.676;9.034;2023-06-22T01:29:39;10.60;;;8.80;;
944;SDS011;459;48.676;9.034;2023-06-22T01:32:05;10.97;;;9.87;;
944;SDS011;459;48.676;9.034;2023-06-22T01:34:30;11.10;;;9.87;;
944;SDS011;459;48.676;9.034;2023-06-22T01:36:56;8.70;;;7.90;;
944;SDS011;459;48.676;9.034;2023-06-22T01:39:22;10.67;;;8.97;;
944;SDS011;459;48.676;9.034;2023-06-22T01:41:48;9.50;;;8.30;;
944;SDS011;459;48.676;9.034;2023-06-22T01:44:13;8.90;;;8.10;;
944;SDS011;459;48.676;9.034;2023-06-22T01:46:38;11.33;;;8.83;;
944;SDS011;459;48.676;9.034;2023-06-22T01:49:04;9.67;;;8.10;;
944;SDS011;459;48.676;9.034;2023-06-22T01:51:30;9.93;;;8.63;;
944;SDS011;459;48.676;9.034;2023-06-22T01:53:55;12.17;;;9.97;;
944;SDS011;459;48.676;9.034;2023-06-22T01:56:20;13.33;;;10.03;;
944;SDS011;459;48.676;9.034;2023-06-22T02:01:36;11.93;;;10.30;;
944;SDS011;459;48.676;9.034;2023-06-22T02:04:09;10.40;;;9.40;;
944;SDS011;459;48.676;9.034;2023-06-22T02:06:37;9.97;;;9.00;;
944;SDS011;459;48.676;9.034;2023-06-22T02:09:06;8.87;;;7.97;;
944;SDS011;459;48.676;9.034;2023-06-22T02:11:32;9.90;;;8.43;;
944;SDS011;459;48.676;9.034;2023-06-22T02:13:58;9.87;;;8.90;;
944;SDS011;459;48.676;9.034;2023-06-22T02:16:23;8.77;;;7.93;;
944;SDS011;459;48.676;9.034;2023-06-22T02:18:50;10.00;;;9.10;;
944;SDS011;459;48.676;9.034;2023-06-22T02:21:18;7.90;;;7.17;;
944;SDS011;459;48.676;9.034;2023-06-22T02:23:43;11.23;;;9.37;;
944;SDS011;459;48.676;9.034;2023-06-22T02:26:09;10.40;;;9.40;;
944;SDS011;459;48.676;9.034;2023-06-22T02:28:34;12.07;;;9.87;;
944;SDS011;459;48.676;9.034;2023-06-22T02:30:59;11.33;;;10.00;;
944;SDS011;459;48.676;9.034;2023-06-22T02:33:24;10.63;;;9.07;;
944;SDS011;459;48.676;9.034;2023-06-22T02:35:50;9.53;;;8.53;;
944;SDS011;459;48.676;9.034;2023-06-22T02:38:15;10.43;;;9.23;;
944;SDS011;459;48.676;9.034;2023-06-22T02:40:40;9.47;;;8.03;;
944;SDS011;459;48.676;9.034;2023-06-22T02:43:05;11.30;;;10.13;;
944;SDS011;459;48.676;9.034;2023-06-22T02:45:30;9.07;;;8.17;;
944;SDS011;459;48.676;9.034;2023-06-22T02:47:56;9.70;;;8.40;;
944;SDS011;459;48.676;9.034;2023-06-22T02:50:21;8.83;;;8.03;;
944;SDS011;459;48.676;9.034;2023-06-22T02:52:46;9.47;;;8.47;;
944;SDS011;459;48.676;9.034;2023-06-22T02:55:11;9.27;;;7.47;;
944;SDS011;459;48.676;9.034;2023-06-22T02:57:36;12.63;;;8.33;;
944;SDS011;459;48.676;9.034;2023-06-22T03:00:02;10.07;;;9.03;;
944;SDS011;459;48.676;9.034;2023-06-22T03:02:28;10.07;;;8.00;;
944;SDS011;459;48.676;9.034;2023-06-22T03:04:53;9.03;;;7.93;;
944;SDS011;459;48.676;9.034;2023-06-22T03:07:19;10.00;;;7.67;;
944;SDS011;459;48.676;9.034;2023-06-22T03:09:44;8.30;;;7.50;;
944;SDS011;459;48.676;9.034;2023-06-22T03:12:09;9.90;;;7.80;;
944;SDS011;459;48.676;9.034;2023-06-22T03:14:35;10.80;;;8.03;;
944;SDS011;459;48.676;9.034;2023-06-22T03:17:00;8.70;;;7.90;;
944;SDS011;459;48.676;9.034;2023-06-22T03:19:28;10.70;;;8.10;;
944;SDS011;459;48.676;9.034;2023-06-22T03:21:54;8.70;;;7.87;;
944;SDS011;459;48.676;9.034;2023-06-22T03:24:19;8.27;;;7.37;;
944;SDS011;459;48.676;9.034;2023-06-22T03:26:45;9.63;;;8.63;;
944;SDS011;459;48.676;9.034;2023-06-22T03:29:11;9.37;;;8.47;;
944;SDS011;459;48.676;9.034;2023-06-22T03:31:36;9.23;;;7.33;;
944;SDS011;459;48.676;9.034;2023-06-22T03:34:01;10.70;;;8.90;;
944;SDS011;459;48.676;9.034;2023-06-22T03:36:27;9.07;;;8.17;;
944;SDS011;459;48.676;9.034;2023-06-22T03:38:52;7.67;;;6.97;;
944;SDS011;459;48.676;9.034;2023-06-22T03:41:17;9.30;;;7.27;;
944;SDS011;459;48.676;9.034;2023-06-22T03:43:42;8.20;;;6.97;;
944;SDS011;459;48.676;9.034;2023-06-22T03:46:07;7.40;;;6.70;;
944;SDS011;459;48.676;9.034;2023-06-22T03:48:33;8.10;;;7.33;;
944;SDS011;459;48.676;9.034;2023-06-22T03:51:01;9.63;;;7.53;;
944;SDS011;459;48.676;9.034;2023-06-22T03:53:26;8.90;;;8.00;;
944;SDS011;459;48.676;9.034;2023-06-22T03:55:52;7.53;;;6.80;;
944;SDS011;459;48.676;9.034;2023-06-22T03:58:18;8.47;;;7.67;;
944;SDS011;459;48.676;9.034;2023-06-22T04:00:44;8.27;;;7.47;;
944;SDS011;459;48.676;9.034;2023-06-22T04:03:09;9.03;;;7.77;;
944;SDS011;459;48.676;9.034;2023-06-22T04:05:34;8.67;;;7.87;;
944;SDS011;459;48.676;9.034;2023-06-22T04:08:00;8.30;;;7.50;;
944;SDS011;459;48.676;9.034;2023-06-22T04:10:25;7.77;;;6.97;;
944;SDS011;459;48.676;9.034;2023-06-22T04:12:50;9.93;;;8.00;;
944;SDS011;459;48.676;9.034;2023-06-22T04:15:15;7.67;;;6.93;;
944;SDS011;459;48.676;9.034;2023-06-22T04:17:40;8.80;;;6.80;;
944;SDS011;459;48.676;9.034;2023-06-22T04:20:06;8.63;;;7.40;;
944;SDS011;459;48.676;9.034;2023-06-22T04:22:31;8.13;;;7.33;;
944;SDS011;459;48.676;9.034;2023-06-22T04:24:56;8.60;;;7.70;;
944;SDS011;459;48.676;9.034;2023-06-22T04:27:21;8.53;;;7.73;;
944;SDS011;459;48.676;9.034;2023-06-22T04:29:48;9.30;;;8.40;;
944;SDS011;459;48.676;9.034;2023-06-22T04:32:14;9.43;;;7.57;;
944;SDS011;459;48.676;9.034;2023-06-22T04:34:40;8.23;;;7.23;;
944;SDS011;459;48.676;9.034;2023-06-22T04:37:05;8.07;;;7.27;;
944;SDS011;459;48.676;9.034;2023-06-22T04:39:30;8.90;;;8.10;;
944;SDS011;459;48.676;9.034;2023-06-22T04:41:56;8.53;;;7.60;;
944;SDS011;459;48.676;9.034;2023-06-22T04:44:25;9.33;;;7.03;;
944;SDS011;459;48.676;9.034;2023-06-22T04:46:50;9.57;;;8.57;;
944;SDS011;459;48.676;9.034;2023-06-22T04:49:19;9.53;;;7.37;;
944;SDS011;459;48.676;9.034;2023-06-22T04:51:45;9.63;;;8.40;;
944;SDS011;459;48.676;9.034;2023-06-22T04:54:10;9.23;;;7.53;;
944;SDS011;459;48.676;9.034;2023-06-22T04:56:35;9.33;;;8.37;;
944;SDS011;459;48.676;9.034;2023-06-22T04:59:02;9.20;;;8.40;;
944;SDS011;459;48.676;9.034;2023-06-22T05:01:28;10.20;;;7.67;;
944;SDS011;459;48.676;9.034;2023-06-22T05:03:53;7.17;;;6.53;;
944;SDS011;459;48.676;9.034;2023-06-22T05:06:22;9.43;;;8.53;;
944;SDS011;459;48.676;9.034;2023-06-22T05:08:50;9.90;;;8.90;;
944;SDS011;459;48.676;9.034;2023-06-22T05:11:15;8.90;;;8.10;;
944;SDS011;459;48.676;9.034;2023-06-22T05:13:40;8.87;;;7.80;;
944;SDS011;459;48.676;9.034;2023-06-22T05:16:05;9.17;;;8.20;;
944;SDS011;459;48.676;9.034;2023-06-22T05:18:31;11.43;;;8.23;;
944;SDS011;459;48.676;9.034;2023-06-22T05:20:57;8.87;;;7.77;;
944;SDS011;459;48.676;9.034;2023-06-22T05:23:22;8.90;;;7.50;;
944;SDS011;459;48.676;9.034;2023-06-22T05:25:47;8.07;;;7.37;;
944;SDS011;459;48.676;9.034;2023-06-22T05:28:13;8.90;;;8.00;;
944;SDS011;459;48.676;9.034;2023-06-22T05:30:38;8.87;;;7.50;;
944;SDS011;459;48.676;9.034;2023-06-22T05:33:04;8.50;;;7.50;;
944;SDS011;459;48.676;9.034;2023-06-22T05:35:29;8.40;;;6.50;;
944;SDS011;459;48.676;9.034;2023-06-22T05:37:54;7.77;;;7.07;;
944;SDS011;459;48.676;9.034;2023-06-22T05:40:20;7.93;;;7.13;;
944;SDS011;459;48.676;9.034;2023-06-22T05:42:45;7.90;;;7.10;;
944;SDS011;459;48.676;9.034;2023-06-22T05:45:10;7.57;;;6.37;;
944;SDS011;459;48.676;9.034;2023-06-22T05:47:35;7.50;;;6.80;;
944;SDS011;459;48.676;9.034;2023-06-22T05:50:01;7.50;;;6.70;;
944;SDS011;459;48.676;9.034;2023-06-22T05:52:26;7.40;;;6.60;;
944;SDS011;459;48.676;9.034;2023-06-22T05:54:51;7.67;;;6.50;;
944;SDS011;459;48.676;9.034;2023-06-22T05:57:16;6.97;;;6.27;;
944;SDS011;459;48.676;9.034;2023-06-22T05:59:41;7.20;;;6.50;;
944;SDS011;459;48.676;9.034;2023-06-22T06:02:06;6.73;;;6.13;;
944;SDS011;459;48.676;9.034;2023-06-22T06:04:32;7.53;;;6.77;;
944;SDS011;459;48.676;9.034;2023-06-22T06:06:57;7.03;;;6.37;;
944;SDS011;459;48.676;9.034;2023-06-22T06:09:22;7.67;;;5.80;;
944;SDS011;459;48.676;9.034;2023-06-22T06:11:47;6.10;;;5.47;;
944;SDS011;459;48.676;9.034;2023-06-22T06:14:12;8.10;;;7.37;;
944;SDS011;459;48.676;9.034;2023-06-22T06:16:38;10.47;;;6.60;;
944;SDS011;459;48.676;9.034;2023-06-22T06:19:03;9.00;;;5.10;;
944;SDS011;459;48.676;9.034;2023-06-22T06:21:28;7.13;;;6.37;;
944;SDS011;459;48.676;9.034;2023-06-22T06:23:53;6.80;;;6.00;;
944;SDS011;459;48.676;9.034;2023-06-22T06:26:18;7.00;;;6.30;;
944;SDS011;459;48.676;9.034;2023-06-22T06:28:53;8.17;;;5.57;;
944;SDS011;459;48.676;9.034;2023-06-22T06:31:18;6.10;;;5.50;;
944;SDS011;459;48.676;9.034;2023-06-22T06:33:43;7.47;;;6.27;;
944;SDS011;459;48.676;9.034;2023-06-22T06:36:08;10.10;;;6.33;;
944;SDS011;459;48.676;9.034;2023-06-22T06:38:33;8.90;;;5.30;;
944;SDS011;459;48.676;9.034;2023-06-22T06:40:59;6.67;;;5.97;;
944;SDS011;459;48.676;9.034;2023-06-22T06:43:24;8.60;;;5.40;;
944;SDS011;459;48.676;9.034;2023-06-22T06:45:49;6.97;;;5.33;;
944;SDS011;459;48.676;9.034;2023-06-22T06:48:14;6.13;;;5.53;;
944;SDS011;459;48.676;9.034;2023-06-22T06:50:40;8.03;;;5.30;;
944;SDS011;459;48.676;9.034;2023-06-22T06:53:05;7.87;;;5.50;;
944;SDS011;459;48.676;9.034;2023-06-22T06:55:31;5.00;;;4.50;;
944;SDS011;459;48.676;9.034;2023-06-22T06:57:57;6.83;;;5.73;;
944;SDS011;459;48.676;9.034;2023-06-22T07:00:24;6.80;;;4.83;;
944;SDS011;459;48.676;9.034;2023-06-22T07:02:50;5.23;;;4.73;;
944;SDS011;459;48.676;9.034;2023-06-22T07:05:15;5.43;;;4.57;;
944;SDS011;459;48.676;9.034;2023-06-22T07:07:40;6.47;;;5.67;;
944;SDS011;459;48.676;9.034;2023-06-22T07:10:06;5.60;;;4.97;;
944;SDS011;459;48.676;9.034;2023-06-22T07:12:32;7.00;;;4.87;;
944;SDS011;459;48.676;9.034;2023-06-22T07:15:04;5.30;;;4.80;;
944;SDS011;459;48.676;9.034;2023-06-22T07:17:29;7.67;;;6.73;;
944;SDS011;459;48.676;9.034;2023-06-22T07:19:54;7.20;;;5.93;;
944;SDS011;459;48.676;9.034;2023-06-22T07:22:19;6.50;;;4.93;;
944;SDS011;459;48.676;9.034;2023-06-22T07:24:44;5.60;;;4.73;;
944;SDS011;459;48.676;9.034;2023-06-22T07:27:10;6.00;;;5.20;;
944;SDS011;459;48.676;9.034;2023-06-22T07:29:37;6.73;;;4.60;;
944;SDS011;459;48.676;9.034;2023-06-22T07:32:04;6.90;;;5.40;;
944;SDS011;459;48.676;9.034;2023-06-22T07:34:30;6.90;;;5.50;;
944;SDS011;459;48.676;9.034;2023-06-22T07:36:55;8.90;;;5.57;;
944;SDS011;459;48.676;9.034;2023-06-22T07:39:20;6.47;;;5.73;;
944;SDS011;459;48.676;9.034;2023-06-22T07:41:50;5.97;;;5.37;;
944;SDS011;459;48.676;9.034;2023-06-22T07:44:15;5.17;;;4.57;;
944;SDS011;459;48.676;9.034;2023-06-22T07:46:41;8.47;;;6.10;;
944;SDS011;459;48.676;9.034;2023-06-22T07:49:06;7.43;;;5.27;;
944;SDS011;459;48.676;9.034;2023-06-22T07:51:33;5.93;;;5.23;;
944;SDS011;459;48.676;9.034;2023-06-22T07:53:58;9.07;;;5.50;;
944;SDS011;459;48.676;9.034;2023-06-22T07:56:23;5.87;;;5.20;;
944;SDS011;459;48.676;9.034;2023-06-22T07:58:48;8.30;;;4.83;;
944;SDS011;459;48.676;9.034;2023-06-22T08:01:14;8.10;;;4.83;;
944;SDS011;459;48.676;9.034;2023-06-22T08:03:39;6.17;;;4.83;;
944;SDS011;459;48.676;9.034;2023-06-22T08:06:04;11.60;;;6.90;;
944;SDS011;459;48.676;9.034;2023-06-22T08:08:30;7.27;;;6.13;;
944;SDS011;459;48.676;9.034;2023-06-22T08:10:55;6.27;;;5.60;;
944;SDS011;459;48.676;9.034;2023-06-22T08:13:21;6.13;;;5.13;;
944;SDS011;459;48.676;9.034;2023-06-22T08:15:46;5.70;;;5.10;;
944;SDS011;459;48.676;9.034;2023-06-22T08:18:11;6.33;;;5.17;;
944;SDS011;459;48.676;9.034;2023-06-22T08:20:36;6.00;;;5.43;;
944;SDS011;459;48.676;9.034;2023-06-22T08:23:01;7.07;;;6.37;;
944;SDS011;459;48.676;9.034;2023-06-22T08:25:31;6.83;;;5.40;;
944;SDS011;459;48.676;9.034;2023-06-22T08:27:56;7.50;;;5.93;;
944;SDS011;459;48.676;9.034;2023-06-22T08:30:21;6.80;;;5.50;;
944;SDS011;459;48.676;9.034;2023-06-22T08:32:46;6.93;;;6.20;;
944;SDS011;459;48.676;9.034;2023-06-22T08:35:12;9.30;;;6.30;;
944;SDS011;459;48.676;9.034;2023-06-22T08:37:37;7.27;;;5.80;;
944;SDS011;459;48.676;9.034;2023-06-22T08:40:04;7.50;;;6.20;;
944;SDS011;459;48.676;9.034;2023-06-22T08:42:33;9.27;;;6.10;;
944;SDS011;459;48.676;9.034;2023-06-22T08:44:59;8.10;;;6.23;;
944;SDS011;459;48.676;9.034;2023-06-22T08:47:24;6.53;;;5.83;;
944;SDS011;459;48.676;9.034;2023-06-22T08:49:49;8.53;;;6.23;;
944;SDS011;459;48.676;9.034;2023-06-22T08:52:14;8.03;;;5.90;;
944;SDS011;459;48.676;9.034;2023-06-22T08:54:40;6.93;;;6.23;;
944;SDS011;459;48.676;9.034;2023-06-22T08:57:05;11.40;;;6.70;;
944;SDS011;459;48.676;9.034;2023-06-22T08:59:30;6.53;;;5.70;;
944;SDS011;459;48.676;9.034;2023-06-22T09:01:55;5.90;;;5.00;;
944;SDS011;459;48.676;9.034;2023-06-22T09:04:21;7.57;;;6.83;;
944;SDS011;459;48.676;9.034;2023-06-22T09:06:49;7.47;;;6.47;;
944;SDS011;459;48.676;9.034;2023-06-22T09:09:17;8.40;;;6.30;;
944;SDS011;459;48.676;9.034;2023-06-22T09:11:42;7.47;;;5.70;;
944;SDS011;459;48.676;9.034;2023-06-22T09:14:08;7.10;;;5.60;;
944;SDS011;459;48.676;9.034;2023-06-22T09:16:33;10.40;;;6.00;;
944;SDS011;459;48.676;9.034;2023-06-22T09:18:58;8.37;;;5.50;;
944;SDS011;459;48.676;9.034;2023-06-22T09:21:24;5.53;;;5.03;;
944;SDS011;459;48.676;9.034;2023-06-22T09:23:49;7.23;;;6.53;;
944;SDS011;459;48.676;9.034;2023-06-22T09:26:19;11.53;;;7.40;;
944;SDS011;459;48.676;9.034;2023-06-22T09:28:44;9.70;;;6.20;;
944;SDS011;459;48.676;9.034;2023-06-22T09:31:09;7.47;;;6.77;;
944;SDS011;459;48.676;9.034;2023-06-22T09:33:35;6.80;;;6.00;;
944;SDS011;459;48.676;9.034;2023-06-22T09:36:01;9.50;;;5.90;;
944;SDS011;459;48.676;9.034;2023-06-22T09:38:26;8.43;;;6.50;;
944;SDS011;459;48.676;9.034;2023-06-22T09:40:51;8.00;;;5.90;;
944;SDS011;459;48.676;9.034;2023-06-22T09:43:16;7.47;;;6.77;;
944;SDS011;459;48.676;9.034;2023-06-22T09:45:42;6.77;;;6.07;;
944;SDS011;459;48.676;9.034;2023-06-22T09:48:07;6.27;;;5.67;;
944;SDS011;459;48.676;9.034;2023-06-22T09:50:32;6.87;;;5.40;;
944;SDS011;459;48.676;9.034;2023-06-22T09:52:57;7.50;;;5.60;;
944;SDS011;459;48.676;9.034;2023-06-22T09:55:22;8.20;;;6.43;;
944;SDS011;459;48.676;9.034;2023-06-22T09:57:47;8.70;;;6.80;;
944;SDS011;459;48.676;9.034;2023-06-22T10:00:13;7.40;;;6.70;;
944;SDS011;459;48.676;9.034;2023-06-22T10:02:40;7.20;;;6.47;;
944;SDS011;459;48.676;9.034;2023-06-22T10:05:06;7.60;;;6.87;;
944;SDS011;459;48.676;9.034;2023-06-22T10:07:32;7.97;;;6.80;;
944;SDS011;459;48.676;9.034;2023-06-22T10:09:57;7.87;;;6.57;;
944;SDS011;459;48.676;9.034;2023-06-22T10:12:22;7.47;;;6.77;;
944;SDS011;459;48.676;9.034;2023-06-22T10:14:48;8.73;;;6.23;;
944;SDS011;459;48.676;9.034;2023-06-22T10:17:13;6.40;;;5.70;;
944;SDS011;459;48.676;9.034;2023-06-22T10:19:38;6.90;;;6.07;;
944;SDS011;459;48.676;9.034;2023-06-22T10:22:04;11.47;;;6.47;;
944;SDS011;459;48.676;9.034;2023-06-22T10:24:29;7.80;;;6.17;;
944;SDS011;459;48.676;9.034;2023-06-22T10:26:54;7.50;;;5.90;;
944;SDS011;459;48.676;9.034;2023-06-22T10:29:20;7.60;;;6.03;;
944;SDS011;459;48.676;9.034;2023-06-22T10:31:45;6.90;;;6.30;;
944;SDS011;459;48.676;9.034;2023-06-22T10:34:10;6.90;;;6.30;;
944;SDS011;459;48.676;9.034;2023-06-22T10:36:35;8.77;;;6.10;;
944;SDS011;459;48.676;9.034;2023-06-22T10:39:00;8.20;;;6.20;;
944;SDS011;459;48.676;9.034;2023-06-22T10:41:27;9.77;;;6.57;;
944;SDS011;459;48.676;9.034;2023-06-22T10:43:55;8.07;;;6.37;;
944;SDS011;459;48.676;9.034;2023-06-22T10:46:20;7.97;;;6.00;;
944;SDS011;459;48.676;9.034;2023-06-22T10:48:45;10.07;;;7.03;;
944;SDS011;459;48.676;9.034;2023-06-22T10:51:10;8.40;;;6.03;;
944;SDS011;459;48.676;9.034;2023-06-22T10:53:35;6.77;;;5.57;;
944;SDS011;459;48.676;9.034;2023-06-22T10:56:00;6.70;;;5.70;;
944;SDS011;459;48.676;9.034;2023-06-22T10:58:26;9.13;;;6.33;;
944;SDS011;459;48.676;9.034;2023-06-22T11:00:51;6.80;;;6.07;;
944;SDS011;459;48.676;9.034;2023-06-22T11:03:16;6.93;;;6.23;;
944;SDS011;459;48.676;9.034;2023-06-22T11:05:42;10.03;;;6.13;;
944;SDS011;459;48.676;9.034;2023-06-22T11:08:07;9.70;;;6.20;;
944;SDS011;459;48.676;9.034;2023-06-22T11:10:32;6.03;;;5.50;;
944;SDS011;459;48.676;9.034;2023-06-22T11:12:57;9.97;;;6.40;;
944;SDS011;459;48.676;9.034;2023-06-22T11:15:23;8.83;;;5.70;;
944;SDS011;459;48.676;9.034;2023-06-22T11:17:48;7.17;;;5.63;;
944;SDS011;459;48.676;9.034;2023-06-22T11:20:13;7.10;;;6.20;;
944;SDS011;459;48.676;9.034;2023-06-22T11:22:39;10.30;;;7.00;;
944;SDS011;459;48.676;9.034;2023-06-22T11:25:05;7.67;;;6.17;;
944;SDS011;459;48.676;9.034;2023-06-22T11:27:30;6.93;;;6.13;;
944;SDS011;459;48.676;9.034;2023-06-22T11:29:55;7.63;;;5.90;;
944;SDS011;459;48.676;9.034;2023-06-22T11:32:21;7.77;;;6.07;;
944;SDS011;459;48.676;9.034;2023-06-22T11:34:46;9.17;;;6.10;;
944;SDS011;459;48.676;9.034;2023-06-22T11:37:11;10.27;;;8.30;;
944;SDS011;459;48.676;9.034;2023-06-22T11:39:36;8.00;;;7.20;;
944;SDS011;459;48.676;9.034;2023-06-22T11:42:01;8.60;;;6.57;;
944;SDS011;459;48.676;9.034;2023-06-22T11:44:26;9.97;;;6.50;;
944;SDS011;459;48.676;9.034;2023-06-22T11:46:52;7.60;;;6.80;;
944;SDS011;459;48.676;9.034;2023-06-22T11:49:17;7.87;;;6.93;;
944;SDS011;459;48.676;9.034;2023-06-22T11:51:42;7.80;;;6.03;;
944;SDS011;459;48.676;9.034;2023-06-22T11:54:07;7.57;;;6.20;;
944;SDS011;459;48.676;9.034;2023-06-22T11:56:32;8.63;;;6.47;;
944;SDS011;459;48.676;9.034;2023-06-22T11:58:58;9.77;;;7.00;;
944;SDS011;459;48.676;9.034;2023-06-22T12:01:23;9.20;;;7.93;;
944;SDS011;459;48.676;9.034;2023-06-22T12:03:48;7.43;;;6.60;;
944;SDS011;459;48.676;9.034;2023-06-22T12:06:13;8.23;;;6.20;;
944;SDS011;459;48.676;9.034;2023-06-22T12:08:38;7.90;;;6.30;;
944;SDS011;459;48.676;9.034;2023-06-22T12:11:04;8.13;;;6.83;;
944;SDS011;459;48.676;9.034;2023-06-22T12:13:29;11.07;;;8.00;;
944;SDS011;459;48.676;9.034;2023-06-22T12:15:54;8.07;;;6.00;;
944;SDS011;459;48.676;9.034;2023-06-22T12:18:19;7.90;;;6.90;;
944;SDS011;459;48.676;9.034;2023-06-22T12:20:46;9.33;;;6.43;;
944;SDS011;459;48.676;9.034;2023-06-22T12:23:12;8.77;;;7.87;;
944;SDS011;459;48.676;9.034;2023-06-22T12:25:37;9.43;;;6.47;;
944;SDS011;459;48.676;9.034;2023-06-22T12:28:02;11.90;;;8.87;;
944;SDS011;459;48.676;9.034;2023-06-22T12:30:29;12.47;;;6.53;;
944;SDS011;459;48.676;9.034;2023-06-22T12:32:54;7.80;;;6.70;;
944;SDS011;459;48.676;9.034;2023-06-22T12:35:19;8.13;;;6.70;;
944;SDS011;459;48.676;9.034;2023-06-22T12:37:45;9.27;;;6.90;;
944;SDS011;459;48.676;9.034;2023-06-22T12:40:10;9.50;;;6.50;;
944;SDS011;459;48.676;9.034;2023-06-22T12:42:35;8.20;;;6.90;;
944;SDS011;459;48.676;9.034;2023-06-22T12:45:01;7.77;;;6.73;;
944;SDS011;459;48.676;9.034;2023-06-22T12:47:26;7.07;;;6.17;;
944;SDS011;459;48.676;9.034;2023-06-22T12:49:51;8.43;;;6.50;;
944;SDS011;459;48.676;9.034;2023-06-22T12:52:16;7.83;;;7.03;;
944;SDS011;459;48.676;9.034;2023-06-22T12:54:41;8.00;;;6.70;;
944;SDS011;459;48.676;9.034;2023-06-22T12:57:07;9.97;;;6.80;;
944;SDS011;459;48.676;9.034;2023-06-22T12:59:32;10.87;;;7.10;;
944;SDS011;459;48.676;9.034;2023-06-22T13:01:57;7.87;;;7.10;;
944;SDS011;459;48.676;9.034;2023-06-22T13:04:22;11.23;;;6.87;;
944;SDS011;459;48.676;9.034;2023-06-22T13:06:47;7.70;;;6.23;;
944;SDS011;459;48.676;9.034;2023-06-22T13:09:17;11.73;;;8.07;;
944;SDS011;459;48.676;9.034;2023-06-22T13:11:42;9.97;;;7.20;;
944;SDS011;459;48.676;9.034;2023-06-22T13:14:08;8.07;;;7.27;;
944;SDS011;459;48.676;9.034;2023-06-22T13:16:33;9.17;;;7.40;;
944;SDS011;459;48.676;9.034;2023-06-22T13:18:58;10.17;;;6.60;;
944;SDS011;459;48.676;9.034;2023-06-22T13:21:23;9.43;;;6.60;;
944;SDS011;459;48.676;9.034;2023-06-22T13:23:48;10.37;;;7.10;;
944;SDS011;459;48.676;9.034;2023-06-22T13:26:13;7.50;;;6.00;;
944;SDS011;459;48.676;9.034;2023-06-22T13:28:39;9.70;;;6.40;;
944;SDS011;459;48.676;9.034;2023-06-22T13:31:04;8.90;;;8.03;;
944;SDS011;459;48.676;9.034;2023-06-22T13:33:29;11.43;;;7.33;;
944;SDS011;459;48.676;9.034;2023-06-22T13:35:54;8.07;;;6.30;;
944;SDS011;459;48.676;9.034;2023-06-22T13:38:19;13.00;;;6.70;;
944;SDS011;459;48.676;9.034;2023-06-22T13:40:45;11.40;;;6.73;;
944;SDS011;459;48.676;9.034;2023-06-22T13:43:10;10.63;;;7.23;;
944;SDS011;459;48.676;9.034;2023-06-22T13:45:35;9.10;;;6.10;;
944;SDS011;459;48.676;9.034;2023-06-22T13:48:00;18.70;;;7.00;;
944;SDS011;459;48.676;9.034;2023-06-22T13:50:25;9.80;;;7.20;;
944;SDS011;459;48.676;9.034;2023-06-22T13:52:51;7.17;;;6.40;;
944;SDS011;459;48.676;9.034;2023-06-22T13:55:16;8.43;;;5.90;;
944;SDS011;459;48.676;9.034;2023-06-22T13:57:42;9.73;;;6.80;;
944;SDS011;459;48.676;9.034;2023-06-22T14:00:07;10.23;;;6.80;;
944;SDS011;459;48.676;9.034;2023-06-22T14:02:33;9.30;;;6.47;;
944;SDS011;459;48.676;9.034;2023-06-22T14:04:58;11.30;;;7.03;;
944;SDS011;459;48.676;9.034;2023-06-22T14:07:23;7.83;;;5.20;;
944;SDS011;459;48.676;9.034;2023-06-22T14:09:49;7.23;;;6.37;;
944;SDS011;459;48.676;9.034;2023-06-22T14:12:14;9.80;;;6.23;;
944;SDS011;459;48.676;9.034;2023-06-22T14:14:40;8.90;;;6.70;;
944;SDS011;459;48.676;9.034;2023-06-22T14:17:05;10.40;;;6.83;;
944;SDS011;459;48.676;9.034;2023-06-22T14:19:31;9.40;;;5.90;;
944;SDS011;459;48.676;9.034;2023-06-22T14:21:56;6.90;;;5.00;;
944;SDS011;459;48.676;9.034;2023-06-22T14:24:24;10.30;;;5.27;;
944;SDS011;459;48.676;9.034;2023-06-22T14:26:49;8.00;;;5.13;;
944;SDS011;459;48.676;9.034;2023-06-22T14:29:14;8.13;;;4.60;;
944;SDS011;459;48.676;9.034;2023-06-22T14:31:40;7.40;;;4.37;;
944;SDS011;459;48.676;9.034;2023-06-22T14:34:05;7.73;;;5.50;;
944;SDS011;459;48.676;9.034;2023-06-22T14:36:31;5.87;;;3.83;;
944;SDS011;459;48.676;9.034;2023-06-22T14:38:56;5.27;;;2.80;;
944;SDS011;459;48.676;9.034;2023-06-22T14:41:21;8.70;;;4.20;;
944;SDS011;459;48.676;9.034;2023-06-22T14:43:46;7.60;;;3.17;;
944;SDS011;459;48.676;9.034;2023-06-22T14:46:12;9.63;;;3.53;;
944;SDS011;459;48.676;9.034;2023-06-22T14:48:38;8.73;;;2.83;;
944;SDS011;459;48.676;9.034;2023-06-22T14:51:03;6.70;;;3.47;;
944;SDS011;459;48.676;9.034;2023-06-22T14:53:28;5.37;;;3.57;;
944;SDS011;459;48.676;9.034;2023-06-22T14:55:53;4.63;;;3.03;;
944;SDS011;459;48.676;9.034;2023-06-22T14:58:19;6.47;;;3.37;;
944;SDS011;459;48.676;9.034;2023-06-22T15:00:44;5.27;;;4.07;;
944;SDS011;459;48.676;9.034;2023-06-22T15:03:10;6.33;;;3.20;;
944;SDS011;459;48.676;9.034;2023-06-22T15:05:41;12.80;;;4.10;;
944;SDS011;459;48.676;9.034;2023-06-22T15:08:07;5.10;;;3.20;;
944;SDS011;459;48.676;9.034;2023-06-22T15:10:32;7.90;;;3.67;;
944;SDS011;459;48.676;9.034;2023-06-22T15:12:57;6.53;;;3.30;;
944;SDS011;459;48.676;9.034;2023-06-22T15:15:22;5.13;;;2.70;;
944;SDS011;459;48.676;9.034;2023-06-22T15:17:48;5.60;;;3.23;;
944;SDS011;459;48.676;9.034;2023-06-22T15:20:13;11.10;;;3.90;;
944;SDS011;459;48.676;9.034;2023-06-22T15:22:38;6.27;;;3.23;;
944;SDS011;459;48.676;9.034;2023-06-22T15:25:03;9.47;;;3.73;;
944;SDS011;459;48.676;9.034;2023-06-22T15:27:28;6.80;;;3.67;;
944;SDS011;459;48.676;9.034;2023-06-22T15:29:54;5.20;;;3.60;;
944;SDS011;459;48.676;9.034;2023-06-22T15:32:19;4.03;;;3.00;;
944;SDS011;459;48.676;9.034;2023-06-22T15:34:44;7.50;;;3.20;;
944;SDS011;459;48.676;9.034;2023-06-22T15:37:09;7.00;;;3.10;;
944;SDS011;459;48.676;9.034;2023-06-22T15:39:34;6.47;;;3.30;;
944;SDS011;459;48.676;9.034;2023-06-22T15:42:00;6.10;;;3.50;;